sensor_id;sensor_type;location;lat;lon;timestamp;P1;durP1;ratioP1;P2;durP2;ratioP2
45011;SDS011;63444;48.148;11.542;2022-10-23T00:00:34;2.70;;;2.03;;
45011;SDS011;63444;48.148;11.542;2022-10-23T00:03:00;3.00;;;2.20;;
45011;SDS011;63444;48.148;11.542;2022-10-23T00:05:26;2.93;;;2.13;;
45011;SDS011;63444;48.148;11.542;2022-10-23T00:07:53;3.23;;;2.50;;
45011;SDS011;63444;48.148;11.542;2022-10-23T00:10:20;3.00;;;2.17;;
45011;SDS011;63444;48.148;11.542;2022-10-23T00:12:47;3.93;;;2.00;;
45011;SDS011;63444;48.148;11.542;2022-10-23T00:15:13;4.37;;;1.90;;
45011;SDS011;63444;48.148;11.542;2022-10-23T00:17:42;2.20;;;1.73;;
45011;SDS011;63444;48.148;11.542;2022-10-23T00:20:08;2.80;;;2.17;;
45011;SDS011;63444;48.148;11.542;2022-10-23T00:22:34;2.10;;;1.90;;
45011;SDS011;63444;48.148;11.542;2022-10-23T00:25:00;2.17;;;1.83;;
45011;SDS011;63444;48.148;11.542;2022-10-23T00:27:25;3.00;;;2.13;;
45011;SDS011;63444;48.148;11.542;2022-10-23T00:29:52;2.37;;;1.90;;
45011;SDS011;63444;48.148;11.542;2022-10-23T00:32:18;2.73;;;2.00;;
45011;SDS011;63444;48.148;11.542;2022-10-23T00:34:45;2.40;;;1.97;;
45011;SDS011;63444;48.148;11.542;2022-10-23T00:37:11;1.97;;;1.63;;
45011;SDS011;63444;48.148;11.542;2022-10-23T00:39:36;3.73;;;1.83;;
45011;SDS011;63444;48.148;11.542;2022-10-23T00:42:02;2.83;;;1.90;;
45011;SDS011;63444;48.148;11.542;2022-10-23T00:46:54;3.30;;;1.97;;
45011;SDS011;63444;48.148;11.542;2022-10-23T00:49:20;2.43;;;2.00;;
45011;SDS011;63444;48.148;11.542;2022-10-23T00:51:47;3.20;;;1.80;;
45011;SDS011;63444;48.148;11.542;2022-10-23T00:54:22;3.67;;;1.60;;
45011;SDS011;63444;48.148;11.542;2022-10-23T00:56:51;3.43;;;1.60;;
45011;SDS011;63444;48.148;11.542;2022-10-23T00:59:21;2.13;;;1.87;;
45011;SDS011;63444;48.148;11.542;2022-10-23T01:01:46;2.47;;;1.80;;
45011;SDS011;63444;48.148;11.542;2022-10-23T01:04:13;3.87;;;2.20;;
45011;SDS011;63444;48.148;11.542;2022-10-23T01:12:14;2.80;;;2.10;;
45011;SDS011;63444;48.148;11.542;2022-10-23T01:17:34;2.73;;;2.07;;
45011;SDS011;63444;48.148;11.542;2022-10-23T01:23:04;4.00;;;1.80;;
45011;SDS011;63444;48.148;11.542;2022-10-23T01:28:54;5.57;;;1.70;;
45011;SDS011;63444;48.148;11.542;2022-10-23T01:31:25;3.63;;;1.70;;
45011;SDS011;63444;48.148;11.542;2022-10-23T01:33:56;1.53;;;1.43;;
45011;SDS011;63444;48.148;11.542;2022-10-23T01:36:27;1.70;;;1.60;;
45011;SDS011;63444;48.148;11.542;2022-10-23T01:39:01;2.33;;;1.43;;
45011;SDS011;63444;48.148;11.542;2022-10-23T01:41:32;4.43;;;1.70;;
45011;SDS011;63444;48.148;11.542;2022-10-23T01:44:08;3.17;;;1.70;;
45011;SDS011;63444;48.148;11.542;2022-10-23T01:46:38;1.90;;;1.70;;
45011;SDS011;63444;48.148;11.542;2022-10-23T01:49:05;2.80;;;1.50;;
45011;SDS011;63444;48.148;11.542;2022-10-23T01:51:34;1.50;;;1.40;;
45011;SDS011;63444;48.148;11.542;2022-10-23T01:54:03;1.37;;;1.20;;
45011;SDS011;63444;48.148;11.542;2022-10-23T01:56:32;1.83;;;1.40;;
45011;SDS011;63444;48.148;11.542;2022-10-23T01:59:02;2.77;;;1.33;;
45011;SDS011;63444;48.148;11.542;2022-10-23T02:01:32;1.40;;;1.30;;
45011;SDS011;63444;48.148;11.542;2022-10-23T02:04:01;1.73;;;1.30;;
45011;SDS011;63444;48.148;11.542;2022-10-23T02:06:29;3.37;;;1.50;;
45011;SDS011;63444;48.148;11.542;2022-10-23T02:08:55;1.90;;;1.47;;
45011;SDS011;63444;48.148;11.542;2022-10-23T02:11:21;1.50;;;1.40;;
45011;SDS011;63444;48.148;11.542;2022-10-23T02:16:58;3.47;;;1.60;;
45011;SDS011;63444;48.148;11.542;2022-10-23T02:19:49;1.40;;;1.30;;
45011;SDS011;63444;48.148;11.542;2022-10-23T02:22:29;1.60;;;1.40;;
45011;SDS011;63444;48.148;11.542;2022-10-23T02:25:02;2.23;;;1.37;;
45011;SDS011;63444;48.148;11.542;2022-10-23T02:27:37;2.73;;;1.40;;
45011;SDS011;63444;48.148;11.542;2022-10-23T02:30:09;1.73;;;1.50;;
45011;SDS011;63444;48.148;11.542;2022-10-23T02:32:38;4.13;;;1.40;;
45011;SDS011;63444;48.148;11.542;2022-10-23T02:35:09;1.90;;;1.50;;
45011;SDS011;63444;48.148;11.542;2022-10-23T02:37:35;1.50;;;1.40;;
45011;SDS011;63444;48.148;11.542;2022-10-23T02:40:01;1.40;;;1.30;;
45011;SDS011;63444;48.148;11.542;2022-10-23T02:45:35;1.60;;;1.40;;
45011;SDS011;63444;48.148;11.542;2022-10-23T02:48:10;1.50;;;1.40;;
45011;SDS011;63444;48.148;11.542;2022-10-23T02:56:20;2.23;;;1.50;;
45011;SDS011;63444;48.148;11.542;2022-10-23T03:04:16;1.77;;;1.40;;
45011;SDS011;63444;48.148;11.542;2022-10-23T03:06:44;1.93;;;1.37;;
45011;SDS011;63444;48.148;11.542;2022-10-23T03:09:11;3.50;;;1.37;;
45011;SDS011;63444;48.148;11.542;2022-10-23T03:11:36;1.30;;;1.20;;
45011;SDS011;63444;48.148;11.542;2022-10-23T03:14:02;2.57;;;1.37;;
45011;SDS011;63444;48.148;11.542;2022-10-23T03:16:27;1.90;;;1.43;;
45011;SDS011;63444;48.148;11.542;2022-10-23T03:18:53;1.60;;;1.50;;
45011;SDS011;63444;48.148;11.542;2022-10-23T03:21:19;2.10;;;1.50;;
45011;SDS011;63444;48.148;11.542;2022-10-23T03:23:45;1.50;;;1.40;;
45011;SDS011;63444;48.148;11.542;2022-10-23T03:26:11;2.10;;;1.57;;
45011;SDS011;63444;48.148;11.542;2022-10-23T03:28:36;1.80;;;1.20;;
45011;SDS011;63444;48.148;11.542;2022-10-23T03:31:02;2.90;;;1.30;;
45011;SDS011;63444;48.148;11.542;2022-10-23T03:33:28;1.10;;;1.10;;
45011;SDS011;63444;48.148;11.542;2022-10-23T03:35:54;1.30;;;1.20;;
45011;SDS011;63444;48.148;11.542;2022-10-23T03:38:20;1.53;;;1.43;;
45011;SDS011;63444;48.148;11.542;2022-10-23T03:40:45;2.50;;;1.30;;
45011;SDS011;63444;48.148;11.542;2022-10-23T03:43:11;1.30;;;1.20;;
45011;SDS011;63444;48.148;11.542;2022-10-23T03:45:37;1.77;;;1.20;;
45011;SDS011;63444;48.148;11.542;2022-10-23T03:48:03;2.33;;;1.20;;
45011;SDS011;63444;48.148;11.542;2022-10-23T03:50:29;1.20;;;1.10;;
45011;SDS011;63444;48.148;11.542;2022-10-23T03:52:55;2.10;;;1.10;;
45011;SDS011;63444;48.148;11.542;2022-10-23T03:55:20;1.83;;;1.20;;
45011;SDS011;63444;48.148;11.542;2022-10-23T03:57:46;2.87;;;1.20;;
45011;SDS011;63444;48.148;11.542;2022-10-23T04:00:12;3.13;;;1.33;;
45011;SDS011;63444;48.148;11.542;2022-10-23T04:02:37;1.13;;;1.10;;
45011;SDS011;63444;48.148;11.542;2022-10-23T04:05:04;1.63;;;1.20;;
45011;SDS011;63444;48.148;11.542;2022-10-23T04:07:30;1.17;;;1.10;;
45011;SDS011;63444;48.148;11.542;2022-10-23T04:09:56;1.30;;;1.20;;
45011;SDS011;63444;48.148;11.542;2022-10-23T04:12:22;1.30;;;1.20;;
45011;SDS011;63444;48.148;11.542;2022-10-23T04:14:48;1.30;;;1.20;;
45011;SDS011;63444;48.148;11.542;2022-10-23T04:17:14;2.10;;;1.10;;
45011;SDS011;63444;48.148;11.542;2022-10-23T04:19:40;1.20;;;1.10;;
45011;SDS011;63444;48.148;11.542;2022-10-23T04:22:05;1.87;;;1.20;;
45011;SDS011;63444;48.148;11.542;2022-10-23T04:24:31;2.30;;;1.20;;
45011;SDS011;63444;48.148;11.542;2022-10-23T04:26:56;1.17;;;1.07;;
45011;SDS011;63444;48.148;11.542;2022-10-23T04:29:22;5.23;;;1.30;;
45011;SDS011;63444;48.148;11.542;2022-10-23T04:31:48;2.40;;;1.10;;
45011;SDS011;63444;48.148;11.542;2022-10-23T04:34:16;1.27;;;1.17;;
45011;SDS011;63444;48.148;11.542;2022-10-23T04:36:42;1.73;;;0.90;;
45011;SDS011;63444;48.148;11.542;2022-10-23T04:39:08;1.20;;;1.10;;
45011;SDS011;63444;48.148;11.542;2022-10-23T04:41:34;2.00;;;1.00;;
45011;SDS011;63444;48.148;11.542;2022-10-23T04:44:00;0.90;;;0.90;;
45011;SDS011;63444;48.148;11.542;2022-10-23T04:46:26;3.07;;;1.37;;
45011;SDS011;63444;48.148;11.542;2022-10-23T04:48:53;1.00;;;1.00;;
45011;SDS011;63444;48.148;11.542;2022-10-23T04:51:18;2.80;;;1.10;;
45011;SDS011;63444;48.148;11.542;2022-10-23T04:53:44;2.03;;;1.43;;
45011;SDS011;63444;48.148;11.542;2022-10-23T04:56:11;4.73;;;1.63;;
45011;SDS011;63444;48.148;11.542;2022-10-23T04:58:39;4.03;;;2.10;;
45011;SDS011;63444;48.148;11.542;2022-10-23T05:01:05;5.93;;;3.27;;
45011;SDS011;63444;48.148;11.542;2022-10-23T05:03:31;5.77;;;3.47;;
45011;SDS011;63444;48.148;11.542;2022-10-23T05:05:57;6.03;;;3.73;;
45011;SDS011;63444;48.148;11.542;2022-10-23T05:08:23;5.50;;;4.00;;
45011;SDS011;63444;48.148;11.542;2022-10-23T05:10:49;5.30;;;3.03;;
45011;SDS011;63444;48.148;11.542;2022-10-23T05:13:16;3.47;;;2.70;;
45011;SDS011;63444;48.148;11.542;2022-10-23T05:15:45;4.67;;;2.20;;
45011;SDS011;63444;48.148;11.542;2022-10-23T05:18:25;2.77;;;1.60;;
45011;SDS011;63444;48.148;11.542;2022-10-23T05:21:13;1.60;;;1.43;;
45011;SDS011;63444;48.148;11.542;2022-10-23T05:23:46;1.53;;;1.43;;
45011;SDS011;63444;48.148;11.542;2022-10-23T05:26:12;1.50;;;1.10;;
45011;SDS011;63444;48.148;11.542;2022-10-23T05:28:37;2.83;;;1.13;;
45011;SDS011;63444;48.148;11.542;2022-10-23T05:31:04;1.20;;;1.10;;
45011;SDS011;63444;48.148;11.542;2022-10-23T05:33:30;1.20;;;1.10;;
45011;SDS011;63444;48.148;11.542;2022-10-23T05:35:58;3.70;;;1.30;;
45011;SDS011;63444;48.148;11.542;2022-10-23T05:38:25;3.30;;;1.30;;
45011;SDS011;63444;48.148;11.542;2022-10-23T05:40:53;2.30;;;1.10;;
45011;SDS011;63444;48.148;11.542;2022-10-23T05:43:19;2.50;;;1.30;;
45011;SDS011;63444;48.148;11.542;2022-10-23T05:45:44;1.23;;;1.13;;
45011;SDS011;63444;48.148;11.542;2022-10-23T05:48:13;1.17;;;1.07;;
45011;SDS011;63444;48.148;11.542;2022-10-23T05:50:39;2.77;;;1.20;;
45011;SDS011;63444;48.148;11.542;2022-10-23T05:53:05;2.30;;;1.23;;
45011;SDS011;63444;48.148;11.542;2022-10-23T05:55:31;1.03;;;1.03;;
45011;SDS011;63444;48.148;11.542;2022-10-23T05:57:57;2.33;;;1.30;;
45011;SDS011;63444;48.148;11.542;2022-10-23T06:00:25;1.20;;;1.10;;
45011;SDS011;63444;48.148;11.542;2022-10-23T06:02:51;3.30;;;1.23;;
45011;SDS011;63444;48.148;11.542;2022-10-23T06:05:16;1.60;;;1.00;;
45011;SDS011;63444;48.148;11.542;2022-10-23T06:07:43;1.17;;;1.00;;
45011;SDS011;63444;48.148;11.542;2022-10-23T06:10:10;1.73;;;0.90;;
45011;SDS011;63444;48.148;11.542;2022-10-23T06:12:36;1.07;;;1.00;;
45011;SDS011;63444;48.148;11.542;2022-10-23T06:15:02;1.10;;;1.00;;
45011;SDS011;63444;48.148;11.542;2022-10-23T06:17:29;1.37;;;1.00;;
45011;SDS011;63444;48.148;11.542;2022-10-23T06:19:54;1.20;;;1.10;;
45011;SDS011;63444;48.148;11.542;2022-10-23T06:22:25;2.27;;;1.30;;
45011;SDS011;63444;48.148;11.542;2022-10-23T06:24:51;1.27;;;1.17;;
45011;SDS011;63444;48.148;11.542;2022-10-23T06:27:17;1.00;;;1.00;;
45011;SDS011;63444;48.148;11.542;2022-10-23T06:29:43;0.90;;;0.90;;
45011;SDS011;63444;48.148;11.542;2022-10-23T06:32:08;2.07;;;0.90;;
45011;SDS011;63444;48.148;11.542;2022-10-23T06:34:34;1.00;;;1.00;;
45011;SDS011;63444;48.148;11.542;2022-10-23T06:36:59;1.23;;;1.13;;
45011;SDS011;63444;48.148;11.542;2022-10-23T06:39:25;1.20;;;1.10;;
45011;SDS011;63444;48.148;11.542;2022-10-23T06:41:51;1.17;;;1.10;;
45011;SDS011;63444;48.148;11.542;2022-10-23T06:44:16;2.17;;;1.10;;
45011;SDS011;63444;48.148;11.542;2022-10-23T06:46:42;1.30;;;1.20;;
45011;SDS011;63444;48.148;11.542;2022-10-23T06:49:11;1.57;;;1.30;;
45011;SDS011;63444;48.148;11.542;2022-10-23T06:51:38;1.37;;;1.20;;
45011;SDS011;63444;48.148;11.542;2022-10-23T06:54:04;2.57;;;1.20;;
45011;SDS011;63444;48.148;11.542;2022-10-23T06:56:29;1.40;;;1.20;;
45011;SDS011;63444;48.148;11.542;2022-10-23T06:58:55;2.37;;;1.33;;
45011;SDS011;63444;48.148;11.542;2022-10-23T07:01:21;1.80;;;1.33;;
45011;SDS011;63444;48.148;11.542;2022-10-23T07:03:47;1.50;;;1.40;;
45011;SDS011;63444;48.148;11.542;2022-10-23T07:06:13;3.43;;;1.47;;
45011;SDS011;63444;48.148;11.542;2022-10-23T07:08:39;2.70;;;1.40;;
45011;SDS011;63444;48.148;11.542;2022-10-23T07:11:05;2.00;;;1.40;;
45011;SDS011;63444;48.148;11.542;2022-10-23T07:13:32;2.20;;;1.43;;
45011;SDS011;63444;48.148;11.542;2022-10-23T07:16:07;4.50;;;1.50;;
45011;SDS011;63444;48.148;11.542;2022-10-23T07:18:34;1.23;;;1.13;;
45011;SDS011;63444;48.148;11.542;2022-10-23T07:20:59;1.10;;;1.00;;
45011;SDS011;63444;48.148;11.542;2022-10-23T07:23:25;1.20;;;1.10;;
45011;SDS011;63444;48.148;11.542;2022-10-23T07:25:50;1.57;;;1.40;;
45011;SDS011;63444;48.148;11.542;2022-10-23T07:28:16;1.40;;;1.20;;
45011;SDS011;63444;48.148;11.542;2022-10-23T07:30:42;1.50;;;1.30;;
45011;SDS011;63444;48.148;11.542;2022-10-23T07:33:07;1.70;;;1.10;;
45011;SDS011;63444;48.148;11.542;2022-10-23T07:35:35;1.30;;;1.20;;
45011;SDS011;63444;48.148;11.542;2022-10-23T07:38:03;1.37;;;1.10;;
45011;SDS011;63444;48.148;11.542;2022-10-23T07:40:29;1.00;;;1.00;;
45011;SDS011;63444;48.148;11.542;2022-10-23T07:42:55;2.47;;;1.23;;
45011;SDS011;63444;48.148;11.542;2022-10-23T07:45:20;2.60;;;1.50;;
45011;SDS011;63444;48.148;11.542;2022-10-23T07:47:49;1.57;;;1.33;;
45011;SDS011;63444;48.148;11.542;2022-10-23T07:50:16;2.83;;;1.27;;
45011;SDS011;63444;48.148;11.542;2022-10-23T07:52:41;3.10;;;1.40;;
45011;SDS011;63444;48.148;11.542;2022-10-23T07:55:07;1.67;;;1.30;;
45011;SDS011;63444;48.148;11.542;2022-10-23T07:57:33;1.57;;;1.23;;
45011;SDS011;63444;48.148;11.542;2022-10-23T07:59:58;1.43;;;1.17;;
45011;SDS011;63444;48.148;11.542;2022-10-23T08:02:24;4.37;;;1.30;;
45011;SDS011;63444;48.148;11.542;2022-10-23T08:04:50;1.60;;;1.20;;
45011;SDS011;63444;48.148;11.542;2022-10-23T08:07:15;1.90;;;1.30;;
45011;SDS011;63444;48.148;11.542;2022-10-23T08:09:41;1.60;;;1.10;;
45011;SDS011;63444;48.148;11.542;2022-10-23T08:12:08;1.37;;;1.20;;
45011;SDS011;63444;48.148;11.542;2022-10-23T08:14:34;1.63;;;1.33;;
45011;SDS011;63444;48.148;11.542;2022-10-23T08:16:59;1.37;;;1.23;;
45011;SDS011;63444;48.148;11.542;2022-10-23T08:19:25;3.23;;;1.50;;
45011;SDS011;63444;48.148;11.542;2022-10-23T08:21:50;2.13;;;1.40;;
45011;SDS011;63444;48.148;11.542;2022-10-23T08:24:18;1.37;;;1.27;;
45011;SDS011;63444;48.148;11.542;2022-10-23T08:26:44;3.50;;;1.40;;
45011;SDS011;63444;48.148;11.542;2022-10-23T08:29:12;1.30;;;1.20;;
45011;SDS011;63444;48.148;11.542;2022-10-23T08:31:37;2.30;;;1.30;;
45011;SDS011;63444;48.148;11.542;2022-10-23T08:34:03;1.20;;;1.10;;
45011;SDS011;63444;48.148;11.542;2022-10-23T08:36:28;2.83;;;1.57;;
45011;SDS011;63444;48.148;11.542;2022-10-23T08:38:54;2.13;;;1.50;;
45011;SDS011;63444;48.148;11.542;2022-10-23T08:46:46;2.07;;;1.43;;
45011;SDS011;63444;48.148;11.542;2022-10-23T08:51:46;1.37;;;1.10;;
45011;SDS011;63444;48.148;11.542;2022-10-23T08:54:15;1.47;;;0.93;;
45011;SDS011;63444;48.148;11.542;2022-10-23T08:56:54;1.30;;;1.20;;
45011;SDS011;63444;48.148;11.542;2022-10-23T08:59:44;1.50;;;1.10;;
45011;SDS011;63444;48.148;11.542;2022-10-23T09:02:55;2.40;;;1.07;;
45011;SDS011;63444;48.148;11.542;2022-10-23T09:05:13;2.33;;;1.10;;
45011;SDS011;63444;48.148;11.542;2022-10-23T09:13:24;1.90;;;1.80;;
45011;SDS011;63444;48.148;11.542;2022-10-23T09:15:56;2.35;;;1.45;;
45011;SDS011;63444;48.148;11.542;2022-10-23T09:18:41;1.30;;;1.20;;
45011;SDS011;63444;48.148;11.542;2022-10-23T09:21:10;2.05;;;1.25;;
45011;SDS011;63444;48.148;11.542;2022-10-23T09:23:36;1.60;;;1.23;;
45011;SDS011;63444;48.148;11.542;2022-10-23T09:26:03;2.25;;;1.40;;
45011;SDS011;63444;48.148;11.542;2022-10-23T09:28:52;1.30;;;1.20;;
45011;SDS011;63444;48.148;11.542;2022-10-23T09:31:25;1.27;;;1.05;;
45011;SDS011;63444;48.148;11.542;2022-10-23T09:33:59;1.38;;;1.27;;
45011;SDS011;63444;48.148;11.542;2022-10-23T09:36:25;1.42;;;0.90;;
45011;SDS011;63444;48.148;11.542;2022-10-23T09:38:54;1.35;;;1.13;;
45011;SDS011;63444;48.148;11.542;2022-10-23T09:41:28;4.38;;;2.05;;
45011;SDS011;63444;48.148;11.542;2022-10-23T09:46:45;1.08;;;0.93;;
45011;SDS011;63444;48.148;11.542;2022-10-23T09:49:17;1.10;;;1.00;;
45011;SDS011;63444;48.148;11.542;2022-10-23T09:51:53;1.20;;;1.10;;
45011;SDS011;63444;48.148;11.542;2022-10-23T09:54:52;2.53;;;1.00;;
45011;SDS011;63444;48.148;11.542;2022-10-23T10:00:13;2.50;;;1.13;;
45011;SDS011;63444;48.148;11.542;2022-10-23T10:02:56;3.65;;;1.30;;
45011;SDS011;63444;48.148;11.542;2022-10-23T10:05:35;2.03;;;1.38;;
45011;SDS011;63444;48.148;11.542;2022-10-23T10:10:40;2.10;;;0.90;;
45011;SDS011;63444;48.148;11.542;2022-10-23T10:15:58;1.02;;;1.00;;
45011;SDS011;63444;48.148;11.542;2022-10-23T10:18:35;1.10;;;1.00;;
45011;SDS011;63444;48.148;11.542;2022-10-23T10:23:53;1.00;;;0.90;;
45011;SDS011;63444;48.148;11.542;2022-10-23T10:26:57;1.30;;;1.20;;
45011;SDS011;63444;48.148;11.542;2022-10-23T10:29:35;1.25;;;1.10;;
45011;SDS011;63444;48.148;11.542;2022-10-23T10:32:15;1.20;;;1.10;;
45011;SDS011;63444;48.148;11.542;2022-10-23T10:37:58;1.45;;;1.33;;
45011;SDS011;63444;48.148;11.542;2022-10-23T10:58:01;0.93;;;0.93;;
45011;SDS011;63444;48.148;11.542;2022-10-23T11:00:37;1.42;;;0.80;;
45011;SDS011;63444;48.148;11.542;2022-10-23T11:06:26;1.10;;;1.00;;
45011;SDS011;63444;48.148;11.542;2022-10-23T11:08:55;0.88;;;0.82;;
45011;SDS011;63444;48.148;11.542;2022-10-23T11:11:35;1.20;;;1.10;;
45011;SDS011;63444;48.148;11.542;2022-10-23T11:14:04;2.28;;;1.40;;
45011;SDS011;63444;48.148;11.542;2022-10-23T11:16:38;1.52;;;1.23;;
45011;SDS011;63444;48.148;11.542;2022-10-23T11:19:05;1.17;;;1.08;;
45011;SDS011;63444;48.148;11.542;2022-10-23T11:21:38;1.42;;;1.13;;
45011;SDS011;63444;48.148;11.542;2022-10-23T11:27:07;1.20;;;1.10;;
45011;SDS011;63444;48.148;11.542;2022-10-23T11:41:21;1.40;;;1.10;;
45011;SDS011;63444;48.148;11.542;2022-10-23T11:43:58;1.08;;;0.80;;
45011;SDS011;63444;48.148;11.542;2022-10-23T11:48:54;1.30;;;1.20;;
45011;SDS011;63444;48.148;11.542;2022-10-23T11:52:22;1.75;;;1.20;;
45011;SDS011;63444;48.148;11.542;2022-10-23T11:54:29;0.95;;;0.95;;
45011;SDS011;63444;48.148;11.542;2022-10-23T11:57:08;0.90;;;0.90;;
45011;SDS011;63444;48.148;11.542;2022-10-23T11:59:40;2.47;;;1.00;;
45011;SDS011;63444;48.148;11.542;2022-10-23T12:02:21;2.15;;;1.10;;
45011;SDS011;63444;48.148;11.542;2022-10-23T12:04:55;3.35;;;1.17;;
45011;SDS011;63444;48.148;11.542;2022-10-23T12:07:36;1.13;;;1.02;;
45011;SDS011;63444;48.148;11.542;2022-10-23T12:10:05;1.38;;;1.02;;
45011;SDS011;63444;48.148;11.542;2022-10-23T12:12:42;1.17;;;1.00;;
45011;SDS011;63444;48.148;11.542;2022-10-23T12:15:20;2.15;;;0.90;;
45011;SDS011;63444;48.148;11.542;2022-10-23T12:17:48;1.00;;;1.00;;
45011;SDS011;63444;48.148;11.542;2022-10-23T12:33:42;1.10;;;1.00;;
45011;SDS011;63444;48.148;11.542;2022-10-23T12:38:46;0.90;;;0.90;;
45011;SDS011;63444;48.148;11.542;2022-10-23T12:41:23;1.05;;;0.90;;
45011;SDS011;63444;48.148;11.542;2022-10-23T12:43:57;1.08;;;0.93;;
45011;SDS011;63444;48.148;11.542;2022-10-23T12:46:28;1.98;;;1.00;;
45011;SDS011;63444;48.148;11.542;2022-10-23T12:48:56;1.27;;;1.10;;
45011;SDS011;63444;48.148;11.542;2022-10-23T12:51:23;1.85;;;1.10;;
45011;SDS011;63444;48.148;11.542;2022-10-23T12:53:50;4.03;;;1.10;;
45011;SDS011;63444;48.148;11.542;2022-10-23T12:56:16;2.15;;;1.05;;
45011;SDS011;63444;48.148;11.542;2022-10-23T12:59:01;2.17;;;1.08;;
45011;SDS011;63444;48.148;11.542;2022-10-23T13:01:36;1.25;;;0.90;;
45011;SDS011;63444;48.148;11.542;2022-10-23T13:06:53;1.38;;;0.95;;
45011;SDS011;63444;48.148;11.542;2022-10-23T13:09:42;1.85;;;0.90;;
45011;SDS011;63444;48.148;11.542;2022-10-23T13:12:10;1.25;;;0.95;;
45011;SDS011;63444;48.148;11.542;2022-10-23T13:14:55;1.40;;;1.00;;
45011;SDS011;63444;48.148;11.542;2022-10-23T13:22:41;2.22;;;1.10;;
45011;SDS011;63444;48.148;11.542;2022-10-23T13:25:24;0.90;;;0.90;;
45011;SDS011;63444;48.148;11.542;2022-10-23T13:30:45;1.38;;;0.90;;
45011;SDS011;63444;48.148;11.542;2022-10-23T13:33:29;2.22;;;1.08;;
45011;SDS011;63444;48.148;11.542;2022-10-23T13:36:00;1.17;;;1.05;;
45011;SDS011;63444;48.148;11.542;2022-10-23T13:39:15;1.92;;;1.33;;
45011;SDS011;63444;48.148;11.542;2022-10-23T13:41:23;1.73;;;1.00;;
45011;SDS011;63444;48.148;11.542;2022-10-23T13:43:50;1.98;;;1.10;;
45011;SDS011;63444;48.148;11.542;2022-10-23T13:46:17;0.98;;;0.85;;
45011;SDS011;63444;48.148;11.542;2022-10-23T13:48:47;4.32;;;1.10;;
45011;SDS011;63444;48.148;11.542;2022-10-23T13:51:26;1.13;;;1.02;;
45011;SDS011;63444;48.148;11.542;2022-10-23T13:53:53;1.38;;;1.20;;
45011;SDS011;63444;48.148;11.542;2022-10-23T13:56:20;2.65;;;1.23;;
45011;SDS011;63444;48.148;11.542;2022-10-23T13:58:47;2.47;;;1.20;;
45011;SDS011;63444;48.148;11.542;2022-10-23T14:01:23;1.27;;;1.20;;
45011;SDS011;63444;48.148;11.542;2022-10-23T14:03:52;1.63;;;1.20;;
45011;SDS011;63444;48.148;11.542;2022-10-23T14:06:18;1.17;;;1.13;;
45011;SDS011;63444;48.148;11.542;2022-10-23T14:08:44;1.00;;;0.93;;
45011;SDS011;63444;48.148;11.542;2022-10-23T14:11:11;1.13;;;1.02;;
45011;SDS011;63444;48.148;11.542;2022-10-23T14:13:37;1.05;;;1.00;;
45011;SDS011;63444;48.148;11.542;2022-10-23T14:16:03;0.90;;;0.90;;
45011;SDS011;63444;48.148;11.542;2022-10-23T14:18:29;1.48;;;1.13;;
45011;SDS011;63444;48.148;11.542;2022-10-23T14:20:58;1.10;;;1.00;;
45011;SDS011;63444;48.148;11.542;2022-10-23T14:23:25;2.00;;;1.00;;
45011;SDS011;63444;48.148;11.542;2022-10-23T14:25:50;1.55;;;1.25;;
45011;SDS011;63444;48.148;11.542;2022-10-23T14:28:16;3.17;;;1.15;;
45011;SDS011;63444;48.148;11.542;2022-10-23T14:30:41;2.63;;;1.30;;
45011;SDS011;63444;48.148;11.542;2022-10-23T14:33:08;1.65;;;1.13;;
45011;SDS011;63444;48.148;11.542;2022-10-23T14:35:33;2.30;;;1.45;;
45011;SDS011;63444;48.148;11.542;2022-10-23T14:38:04;1.25;;;0.90;;
45011;SDS011;63444;48.148;11.542;2022-10-23T14:40:30;1.50;;;1.17;;
45011;SDS011;63444;48.148;11.542;2022-10-23T14:42:56;1.75;;;1.35;;
45011;SDS011;63444;48.148;11.542;2022-10-23T14:45:21;2.08;;;1.25;;
45011;SDS011;63444;48.148;11.542;2022-10-23T14:47:48;1.17;;;1.10;;
45011;SDS011;63444;48.148;11.542;2022-10-23T14:50:13;1.50;;;1.40;;
45011;SDS011;63444;48.148;11.542;2022-10-23T14:52:39;2.45;;;1.13;;
45011;SDS011;63444;48.148;11.542;2022-10-23T14:55:05;1.52;;;1.17;;
45011;SDS011;63444;48.148;11.542;2022-10-23T14:57:31;1.38;;;1.27;;
45011;SDS011;63444;48.148;11.542;2022-10-23T14:59:56;1.40;;;1.30;;
45011;SDS011;63444;48.148;11.542;2022-10-23T15:02:22;2.47;;;1.52;;
45011;SDS011;63444;48.148;11.542;2022-10-23T15:04:47;1.52;;;1.17;;
45011;SDS011;63444;48.148;11.542;2022-10-23T15:07:13;2.08;;;1.25;;
45011;SDS011;63444;48.148;11.542;2022-10-23T15:09:38;2.53;;;1.40;;
45011;SDS011;63444;48.148;11.542;2022-10-23T15:12:04;1.42;;;1.33;;
45011;SDS011;63444;48.148;11.542;2022-10-23T15:14:31;3.00;;;1.60;;
45011;SDS011;63444;48.148;11.542;2022-10-23T15:16:56;2.08;;;1.40;;
45011;SDS011;63444;48.148;11.542;2022-10-23T15:19:24;4.20;;;1.40;;
45011;SDS011;63444;48.148;11.542;2022-10-23T15:21:50;1.33;;;1.23;;
45011;SDS011;63444;48.148;11.542;2022-10-23T15:24:16;2.65;;;1.42;;
45011;SDS011;63444;48.148;11.542;2022-10-23T15:26:43;3.03;;;1.42;;
45011;SDS011;63444;48.148;11.542;2022-10-23T15:29:08;2.08;;;1.20;;
45011;SDS011;63444;48.148;11.542;2022-10-23T15:34:04;1.50;;;1.30;;
45011;SDS011;63444;48.148;11.542;2022-10-23T15:36:30;2.17;;;1.60;;
45011;SDS011;63444;48.148;11.542;2022-10-23T15:38:56;2.00;;;1.50;;
45011;SDS011;63444;48.148;11.542;2022-10-23T15:41:29;3.40;;;1.60;;
45011;SDS011;63444;48.148;11.542;2022-10-23T15:43:59;1.92;;;1.67;;
45011;SDS011;63444;48.148;11.542;2022-10-23T15:46:26;3.33;;;1.50;;
45011;SDS011;63444;48.148;11.542;2022-10-23T15:48:52;3.85;;;1.80;;
45011;SDS011;63444;48.148;11.542;2022-10-23T15:51:18;2.92;;;1.60;;
45011;SDS011;63444;48.148;11.542;2022-10-23T15:53:43;2.60;;;1.80;;
45011;SDS011;63444;48.148;11.542;2022-10-23T15:56:09;2.58;;;1.50;;
45011;SDS011;63444;48.148;11.542;2022-10-23T15:58:34;2.30;;;1.73;;
45011;SDS011;63444;48.148;11.542;2022-10-23T16:01:00;2.85;;;1.67;;
45011;SDS011;63444;48.148;11.542;2022-10-23T16:03:30;3.92;;;1.90;;
45011;SDS011;63444;48.148;11.542;2022-10-23T16:06:06;2.75;;;1.80;;
45011;SDS011;63444;48.148;11.542;2022-10-23T16:08:36;3.45;;;2.05;;
45011;SDS011;63444;48.148;11.542;2022-10-23T16:11:02;3.75;;;1.95;;
45011;SDS011;63444;48.148;11.542;2022-10-23T16:13:35;3.00;;;2.30;;
45011;SDS011;63444;48.148;11.542;2022-10-23T16:16:02;2.45;;;2.17;;
45011;SDS011;63444;48.148;11.542;2022-10-23T16:18:27;3.55;;;2.22;;
45011;SDS011;63444;48.148;11.542;2022-10-23T16:20:53;3.88;;;2.05;;
45011;SDS011;63444;48.148;11.542;2022-10-23T16:23:19;2.33;;;2.03;;
45011;SDS011;63444;48.148;11.542;2022-10-23T16:25:45;2.10;;;1.90;;
45011;SDS011;63444;48.148;11.542;2022-10-23T16:28:11;4.32;;;2.10;;
45011;SDS011;63444;48.148;11.542;2022-10-23T16:30:40;4.68;;;2.17;;
45011;SDS011;63444;48.148;11.542;2022-10-23T16:33:06;4.70;;;2.00;;
45011;SDS011;63444;48.148;11.542;2022-10-23T16:35:32;4.07;;;2.20;;
45011;SDS011;63444;48.148;11.542;2022-10-23T16:37:57;4.32;;;2.20;;
45011;SDS011;63444;48.148;11.542;2022-10-23T16:40:23;3.53;;;2.22;;
45011;SDS011;63444;48.148;11.542;2022-10-23T16:42:49;4.53;;;2.23;;
45011;SDS011;63444;48.148;11.542;2022-10-23T16:45:14;3.50;;;2.20;;
45011;SDS011;63444;48.148;11.542;2022-10-23T16:47:40;5.53;;;2.05;;
45011;SDS011;63444;48.148;11.542;2022-10-23T16:50:05;3.15;;;2.00;;
45011;SDS011;63444;48.148;11.542;2022-10-23T16:52:33;3.58;;;2.00;;
45011;SDS011;63444;48.148;11.542;2022-10-23T16:54:59;3.05;;;2.30;;